createdAt,value
2023-03-19T00:01:08.593Z,77.91
2023-03-19T00:06:01.024Z,77.24
2023-03-19T00:10:53.317Z,76.89
2023-03-19T00:15:47.086Z,77.53
2023-03-19T00:25:50.308Z,77.29
2023-03-19T00:56:19.559Z,72.26
2023-03-19T01:06:25.618Z,71.26
2023-03-19T01:11:19.686Z,71.40
2023-03-19T01:16:19.125Z,72.45
2023-03-19T01:21:21.958Z,73.64
2023-03-19T01:26:15.988Z,74.06
2023-03-19T01:41:25.506Z,74.99
2023-03-19T01:46:28.184Z,76.64
2023-03-19T01:56:46.014Z,78.67
2023-03-19T02:01:50.923Z,79.43
2023-03-19T02:06:45.099Z,75.57
2023-03-19T02:11:38.217Z,75.09
2023-03-19T02:16:30.206Z,76.21
2023-03-19T02:21:23.483Z,76.20
2023-03-19T02:26:19.358Z,75.50
2023-03-19T02:31:13.464Z,76.41
2023-03-19T02:51:32.400Z,80.56
2023-03-19T02:56:24.082Z,77.08
2023-03-19T03:01:17.195Z,76.85
2023-03-19T03:06:12.504Z,78.22
2023-03-19T03:11:11.865Z,77.51
2023-03-19T03:21:11.643Z,77.44
2023-03-19T03:26:04.027Z,77.21
2023-03-19T03:31:00.886Z,77.52
2023-03-19T03:35:52.609Z,75.27
2023-03-19T03:40:44.456Z,74.71
2023-03-19T03:55:50.050Z,73.18
2023-03-19T04:00:41.806Z,71.83
2023-03-19T04:05:33.750Z,71.71
2023-03-19T04:10:25.828Z,72.64
2023-03-19T04:15:17.710Z,71.92
2023-03-19T04:20:11.029Z,71.64
2023-03-19T04:25:02.782Z,70.93
2023-03-19T04:29:54.684Z,69.31
2023-03-19T04:34:46.616Z,70.97
2023-03-19T04:39:38.591Z,70.04
2023-03-19T04:44:31.470Z,69.17
2023-03-19T04:49:24.428Z,71.37
2023-03-19T05:04:28.972Z,71.64
2023-03-19T05:09:20.672Z,73.54
2023-03-19T05:14:12.358Z,73.61
2023-03-19T05:19:04.034Z,76.53
2023-03-19T05:23:57.100Z,76.48
2023-03-19T05:28:48.795Z,77.95
2023-03-19T05:33:40.480Z,78.16
2023-03-19T05:38:32.149Z,78.79
2023-03-19T05:43:23.827Z,80.36
2023-03-19T05:48:15.488Z,80.08
2023-03-19T05:53:07.234Z,81.72
2023-03-19T05:57:59.044Z,88.28
2023-03-19T06:02:53.278Z,87.36
2023-03-19T06:07:45.160Z,89.15
2023-03-19T06:12:36.845Z,91.18
2023-03-19T06:17:29.344Z,92.60
2023-03-19T06:22:21.022Z,93.37
2023-03-19T06:27:12.741Z,93.17
2023-03-19T06:32:04.771Z,93.02
2023-03-19T06:36:56.812Z,93.50
2023-03-19T06:41:48.895Z,92.32
2023-03-19T06:46:40.603Z,93.46
2023-03-19T06:51:32.327Z,95.17
2023-03-19T06:56:24.038Z,96.06
2023-03-19T07:01:16.420Z,92.81
2023-03-19T07:06:08.239Z,93.31
2023-03-19T07:11:05.797Z,90.87
2023-03-19T07:15:57.536Z,88.79
2023-03-19T07:20:49.250Z,90.87
2023-03-19T07:25:41.307Z,89.85
2023-03-19T07:30:33.340Z,89.84
2023-03-19T07:35:25.423Z,87.79
2023-03-19T07:40:17.133Z,85.06
2023-03-19T07:45:09.603Z,85.92
2023-03-19T07:50:01.656Z,85.77
2023-03-19T07:54:54.054Z,85.43
2023-03-19T07:59:46.498Z,83.47
2023-03-19T08:09:44.304Z,83.03
2023-03-19T08:14:36.579Z,82.59
2023-03-19T08:19:28.659Z,79.72
2023-03-19T08:24:20.635Z,78.13
2023-03-19T08:29:12.799Z,74.84
2023-03-19T08:34:05.417Z,72.65
2023-03-19T08:38:59.084Z,71.82
2023-03-19T08:44:11.083Z,68.61
2023-03-19T08:49:05.763Z,67.45
2023-03-19T08:59:04.024Z,65.08
2023-03-19T09:03:56.798Z,64.04
2023-03-19T09:13:54.309Z,62.70
2023-03-19T09:18:46.004Z,61.31
2023-03-19T09:23:37.672Z,58.65
2023-03-19T09:28:29.477Z,57.46
2023-03-19T09:33:22.295Z,57.32
2023-03-19T09:38:13.997Z,56.72
2023-03-19T09:43:29.168Z,56.86
2023-03-19T09:48:53.752Z,56.09
2023-03-19T09:54:00.527Z,55.13
2023-03-19T09:58:52.707Z,57.70
2023-03-19T10:04:19.915Z,56.78
2023-03-19T10:09:40.769Z,57.78
2023-03-19T10:14:47.382Z,56.45
2023-03-19T10:20:28.588Z,57.50
2023-03-19T10:30:35.315Z,56.99
2023-03-19T10:35:47.608Z,59.11
2023-03-19T10:40:57.213Z,56.66
2023-03-19T10:45:49.375Z,55.37
2023-03-19T10:51:00.709Z,54.80
2023-03-19T10:56:00.132Z,54.55
2023-03-19T11:01:03.830Z,53.54
2023-03-19T11:06:26.252Z,53.29
2023-03-19T11:11:34.849Z,52.03
2023-03-19T11:16:26.608Z,52.00
2023-03-19T11:21:32.932Z,51.87
2023-03-19T11:26:30.565Z,51.54
2023-03-19T11:31:41.252Z,51.69
2023-03-19T11:37:20.303Z,51.99
2023-03-19T11:42:54.220Z,51.28
2023-03-19T11:48:16.002Z,51.76
2023-03-19T11:53:37.021Z,50.96
2023-03-19T11:59:12.571Z,50.63
2023-03-19T12:04:26.346Z,50.15
2023-03-19T12:15:12.801Z,50.11
2023-03-19T12:20:44.697Z,49.03
2023-03-19T12:26:00.668Z,49.26
2023-03-19T12:31:26.214Z,49.66
2023-03-19T12:36:27.950Z,50.96
2023-03-19T12:41:27.029Z,51.23
2023-03-19T12:46:38.070Z,50.58
2023-03-19T12:57:00.122Z,49.81
2023-03-19T13:02:24.161Z,49.96
2023-03-19T13:07:39.545Z,49.17
2023-03-19T13:12:37.520Z,49.21
2023-03-19T13:17:55.619Z,47.89
2023-03-19T13:22:57.748Z,46.55
2023-03-19T13:27:55.178Z,46.70
2023-03-19T13:33:00.932Z,48.33
2023-03-19T13:38:20.465Z,48.49
2023-03-19T13:43:30.204Z,49.57
2023-03-19T13:48:28.500Z,48.65
2023-03-19T13:53:32.278Z,48.42
2023-03-19T13:58:52.830Z,47.97
2023-03-19T14:10:07.532Z,47.89
2023-03-19T14:15:23.961Z,48.21
2023-03-19T14:20:16.713Z,48.68
2023-03-19T14:25:20.266Z,48.63
2023-03-19T14:30:44.515Z,47.58
2023-03-19T14:35:46.546Z,47.40
2023-03-19T14:41:03.392Z,49.13
2023-03-19T14:46:20.455Z,49.53
2023-03-19T14:51:57.461Z,50.29
2023-03-19T14:56:50.364Z,50.85
2023-03-19T15:01:51.563Z,51.23
2023-03-19T15:06:56.029Z,51.68
2023-03-19T15:11:58.814Z,52.09
2023-03-19T15:17:06.519Z,52.79
2023-03-19T15:22:25.063Z,53.76
2023-03-19T15:27:27.519Z,54.95
2023-03-19T15:32:56.922Z,55.31
2023-03-19T15:37:59.828Z,54.90
2023-03-19T15:42:53.325Z,55.62
2023-03-19T15:47:52.828Z,56.35
2023-03-19T15:52:52.553Z,56.55
2023-03-19T15:57:45.145Z,58.70
2023-03-19T16:02:42.845Z,58.62
2023-03-19T16:07:44.477Z,60.47
2023-03-19T16:12:41.149Z,62.09
2023-03-19T16:17:36.113Z,63.99
2023-03-19T16:22:32.846Z,64.58
2023-03-19T16:27:38.668Z,65.82
2023-03-19T16:32:32.544Z,66.47
2023-03-19T16:37:34.269Z,68.05
2023-03-19T16:42:33.562Z,69.69
2023-03-19T16:47:25.315Z,72.32
2023-03-19T16:52:23.979Z,76.23
2023-03-19T16:57:17.187Z,80.67
2023-03-19T17:02:17.437Z,85.17
2023-03-19T17:07:10.444Z,87.00
2023-03-19T17:12:04.621Z,89.17
2023-03-19T17:16:56.819Z,90.67
2023-03-19T17:21:56.733Z,92.29
2023-03-19T17:26:48.660Z,92.75
2023-03-19T17:31:40.650Z,92.88
2023-03-19T17:36:33.510Z,92.72
2023-03-19T17:41:25.321Z,93.55
2023-03-19T17:46:23.636Z,93.46
2023-03-19T17:51:17.094Z,93.17
2023-03-19T17:56:17.085Z,93.12
2023-03-19T18:01:28.180Z,93.53
2023-03-19T18:06:23.910Z,93.25
2023-03-19T18:11:15.912Z,93.59
2023-03-19T18:16:32.129Z,94.25
2023-03-19T18:21:24.236Z,93.66
2023-03-19T18:26:18.813Z,93.87
2023-03-19T18:31:22.890Z,93.64
2023-03-19T18:36:24.432Z,94.23
2023-03-19T18:41:21.836Z,94.44
2023-03-19T18:46:40.851Z,94.37
2023-03-19T18:51:32.886Z,95.20
2023-03-19T18:56:30.644Z,95.21
2023-03-19T19:01:22.922Z,95.34
2023-03-19T19:06:44.095Z,95.23
2023-03-19T19:11:41.474Z,95.10
2023-03-19T19:16:38.330Z,95.77
2023-03-19T19:21:30.336Z,95.87
2023-03-19T19:26:29.818Z,95.53
2023-03-19T19:31:30.494Z,95.73
2023-03-19T19:36:35.017Z,95.60
2023-03-19T19:41:27.888Z,95.81
2023-03-19T19:46:24.021Z,95.82
2023-03-19T19:51:29.940Z,95.53
2023-03-19T19:56:27.116Z,96.30
2023-03-19T20:01:25.118Z,96.64
2023-03-19T20:06:16.848Z,95.94
2023-03-19T20:11:30.885Z,95.90
2023-03-19T20:16:27.339Z,95.69
2023-03-19T20:21:20.218Z,95.34
2023-03-19T20:26:20.849Z,95.28
2023-03-19T20:31:23.167Z,93.95
2023-03-19T20:36:16.184Z,93.63
2023-03-19T20:41:22.663Z,93.88
2023-03-19T20:46:25.246Z,93.66
2023-03-19T20:51:24.995Z,93.74
2023-03-19T20:56:21.928Z,94.30
2023-03-19T21:06:25.754Z,95.56
2023-03-19T21:11:21.785Z,96.17
2023-03-19T21:16:26.078Z,96.35
2023-03-19T21:21:20.005Z,97.64
2023-03-19T21:26:22.203Z,97.94
2023-03-19T21:31:20.434Z,97.35
2023-03-19T21:36:12.709Z,98.16
2023-03-19T21:41:32.686Z,98.42
2023-03-19T21:46:29.483Z,98.80
2023-03-19T21:51:22.949Z,99.51
2023-03-19T21:56:32.444Z,99.58
2023-03-19T22:01:25.496Z,100.00
2023-03-19T22:06:17.282Z,99.95
2023-03-19T22:11:28.583Z,99.53
2023-03-19T22:16:24.509Z,98.77
2023-03-19T22:21:20.435Z,98.52
2023-03-19T22:26:40.376Z,100.00
2023-03-19T22:31:34.037Z,99.96
2023-03-19T22:36:26.782Z,100.00
2023-03-19T22:41:34.687Z,100.00
2023-03-19T22:46:27.569Z,100.00
2023-03-19T22:51:27.076Z,100.00
2023-03-19T22:56:21.248Z,100.00
2023-03-19T23:01:22.478Z,100.00
2023-03-19T23:06:29.825Z,100.00
2023-03-19T23:11:22.324Z,100.00
2023-03-19T23:16:24.594Z,100.00
2023-03-19T23:21:19.415Z,100.00
2023-03-19T23:26:34.417Z,100.00
2023-03-19T23:31:26.156Z,100.00
2023-03-19T23:36:18.331Z,100.00
2023-03-19T23:41:24.341Z,100.00
2023-03-19T23:46:16.174Z,100.00
2023-03-19T23:51:13.800Z,100.00
2023-03-19T23:56:28.519Z,100.00
